Terminal Aerodrome Forecast
Issued by NWS

Home | Current Version | Previous Version | Graphics & Text | Print | Product List | Glossary On
Versions: 1 2 3 4 5 6 7 8 9 10 11 12 13
000
FTUS43 KOAX 010343 AAA
TAFCDR
TAF AMD
KCDR 010343Z 0104/0124 VRB04KT 6SM HZ VCSH BKN100
     FM010600 VRB03KT 6SM HZ SCT100
     FM011800 20008KT P6SM SCT080=

USA.gov is the U.S. government's official web portal to all federal, state and local government web resources and services.